sensor_id;sensor_type;location;lat;lon;timestamp;pressure;altitude;pressure_sealevel;temperature;humidity
25080;BME280;13071;48.868;9.996;2023-03-03T00:00:26;96667.41;;;1.01;87.60
25080;BME280;13071;48.868;9.996;2023-03-03T00:02:53;96662.63;;;1.08;87.87
25080;BME280;13071;48.868;9.996;2023-03-03T00:05:22;96663.38;;;1.09;87.48
25080;BME280;13071;48.868;9.996;2023-03-03T00:07:49;96674.06;;;1.09;87.62
25080;BME280;13071;48.868;9.996;2023-03-03T00:10:16;96673.00;;;1.10;88.00
25080;BME280;13071;48.868;9.996;2023-03-03T00:12:46;96668.72;;;1.09;87.81
25080;BME280;13071;48.868;9.996;2023-03-03T00:15:15;96662.34;;;1.10;87.71
25080;BME280;13071;48.868;9.996;2023-03-03T00:17:42;96673.78;;;1.05;87.76
25080;BME280;13071;48.868;9.996;2023-03-03T00:20:40;96669.81;;;0.98;88.76
25080;BME280;13071;48.868;9.996;2023-03-03T00:23:15;96678.31;;;1.05;88.33
25080;BME280;13071;48.868;9.996;2023-03-03T00:25:44;96672.47;;;0.98;88.01
25080;BME280;13071;48.868;9.996;2023-03-03T00:28:22;96674.34;;;0.97;87.92
25080;BME280;13071;48.868;9.996;2023-03-03T00:30:50;96677.00;;;0.97;88.12
25080;BME280;13071;48.868;9.996;2023-03-03T00:33:23;96672.19;;;0.99;88.23
25080;BME280;13071;48.868;9.996;2023-03-03T00:35:54;96675.16;;;1.08;88.05
25080;BME280;13071;48.868;9.996;2023-03-03T00:38:21;96674.84;;;1.04;87.72
25080;BME280;13071;48.868;9.996;2023-03-03T00:40:48;96679.13;;;1.00;87.80
25080;BME280;13071;48.868;9.996;2023-03-03T00:43:19;96681.53;;;1.07;87.95
25080;BME280;13071;48.868;9.996;2023-03-03T00:45:47;96679.38;;;1.04;87.37
25080;BME280;13071;48.868;9.996;2023-03-03T00:48:23;96683.94;;;1.03;87.20
25080;BME280;13071;48.868;9.996;2023-03-03T00:50:50;96677.28;;;0.80;86.42
25080;BME280;13071;48.868;9.996;2023-03-03T00:53:20;96681.53;;;0.76;86.69
25080;BME280;13071;48.868;9.996;2023-03-03T00:55:48;96682.34;;;0.72;86.48
25080;BME280;13071;48.868;9.996;2023-03-03T00:58:15;96672.22;;;0.69;87.03
25080;BME280;13071;48.868;9.996;2023-03-03T01:00:43;96675.94;;;0.68;87.25
25080;BME280;13071;48.868;9.996;2023-03-03T01:03:13;96677.56;;;0.69;87.82
25080;BME280;13071;48.868;9.996;2023-03-03T01:05:40;96674.09;;;0.68;88.23
25080;BME280;13071;48.868;9.996;2023-03-03T01:08:07;96674.34;;;0.67;88.56
25080;BME280;13071;48.868;9.996;2023-03-03T01:10:37;96670.06;;;0.66;88.15
25080;BME280;13071;48.868;9.996;2023-03-03T01:13:05;96666.09;;;0.58;87.97
25080;BME280;13071;48.868;9.996;2023-03-03T01:15:32;96664.72;;;0.56;87.67
25080;BME280;13071;48.868;9.996;2023-03-03T01:17:59;96653.81;;;0.37;87.07
25080;BME280;13071;48.868;9.996;2023-03-03T01:20:25;96656.66;;;0.05;88.37
25080;BME280;13071;48.868;9.996;2023-03-03T01:22:52;96665.91;;;-0.18;90.06
25080;BME280;13071;48.868;9.996;2023-03-03T01:25:18;96667.56;;;0.04;89.90
25080;BME280;13071;48.868;9.996;2023-03-03T01:27:46;96660.94;;;0.11;89.19
25080;BME280;13071;48.868;9.996;2023-03-03T01:30:14;96659.34;;;0.15;89.60
25080;BME280;13071;48.868;9.996;2023-03-03T01:32:41;96665.47;;;0.16;89.12
25080;BME280;13071;48.868;9.996;2023-03-03T01:35:08;96659.91;;;0.32;89.21
25080;BME280;13071;48.868;9.996;2023-03-03T01:37:35;96666.31;;;0.47;89.70
25080;BME280;13071;48.868;9.996;2023-03-03T01:40:03;96664.72;;;0.56;89.76
25080;BME280;13071;48.868;9.996;2023-03-03T01:42:30;96659.97;;;0.68;89.71
25080;BME280;13071;48.868;9.996;2023-03-03T01:45:13;96657.31;;;0.73;89.43
25080;BME280;13071;48.868;9.996;2023-03-03T01:47:42;96656.50;;;0.77;89.58
25080;BME280;13071;48.868;9.996;2023-03-03T01:50:13;96661.81;;;0.82;89.39
25080;BME280;13071;48.868;9.996;2023-03-03T01:52:42;96653.84;;;0.82;89.62
25080;BME280;13071;48.868;9.996;2023-03-03T01:55:12;96661.81;;;0.93;89.32
25080;BME280;13071;48.868;9.996;2023-03-03T01:57:43;96649.31;;;0.88;89.46
25080;BME280;13071;48.868;9.996;2023-03-03T02:00:14;96651.16;;;0.88;89.74
25080;BME280;13071;48.868;9.996;2023-03-03T02:02:42;96631.47;;;0.83;89.76
25080;BME280;13071;48.868;9.996;2023-03-03T02:05:09;96640.22;;;0.89;90.23
25080;BME280;13071;48.868;9.996;2023-03-03T02:07:37;96647.44;;;0.78;91.16
25080;BME280;13071;48.868;9.996;2023-03-03T02:10:06;96649.28;;;0.53;92.86
25080;BME280;13071;48.868;9.996;2023-03-03T02:12:38;96647.16;;;0.60;93.49
25080;BME280;13071;48.868;9.996;2023-03-03T02:15:18;96651.69;;;0.39;93.64
25080;BME280;13071;48.868;9.996;2023-03-03T02:17:47;96644.78;;;0.58;93.13
25080;BME280;13071;48.868;9.996;2023-03-03T02:20:19;96632.78;;;0.66;92.03
25080;BME280;13071;48.868;9.996;2023-03-03T02:22:55;96641.31;;;0.58;92.04
25080;BME280;13071;48.868;9.996;2023-03-03T02:25:30;96634.63;;;0.65;91.88
25080;BME280;13071;48.868;9.996;2023-03-03T02:28:01;96627.44;;;0.66;91.47
25080;BME280;13071;48.868;9.996;2023-03-03T02:30:28;96636.25;;;0.71;91.31
25080;BME280;13071;48.868;9.996;2023-03-03T02:32:54;96635.69;;;0.69;91.76
25080;BME280;13071;48.868;9.996;2023-03-03T02:35:27;96637.59;;;0.79;90.89
25080;BME280;13071;48.868;9.996;2023-03-03T02:37:57;96633.03;;;0.74;90.93
25080;BME280;13071;48.868;9.996;2023-03-03T02:40:27;96633.84;;;0.75;91.15
25080;BME280;13071;48.868;9.996;2023-03-03T02:42:57;96630.66;;;0.78;91.12
25080;BME280;13071;48.868;9.996;2023-03-03T02:45:25;96642.38;;;0.77;91.31
25080;BME280;13071;48.868;9.996;2023-03-03T02:47:52;96633.59;;;0.76;91.23
25080;BME280;13071;48.868;9.996;2023-03-03T02:50:18;96641.84;;;0.80;90.79
25080;BME280;13071;48.868;9.996;2023-03-03T02:52:45;96643.97;;;0.83;90.96
25080;BME280;13071;48.868;9.996;2023-03-03T02:55:11;96641.56;;;0.86;90.93
25080;BME280;13071;48.868;9.996;2023-03-03T02:57:38;96645.84;;;0.82;90.72
25080;BME280;13071;48.868;9.996;2023-03-03T03:00:06;96651.97;;;0.88;91.24
25080;BME280;13071;48.868;9.996;2023-03-03T03:02:34;96647.16;;;0.90;91.28
25080;BME280;13071;48.868;9.996;2023-03-03T03:05:01;96645.56;;;0.94;91.05
25080;BME280;13071;48.868;9.996;2023-03-03T03:07:27;96651.44;;;0.96;91.27
25080;BME280;13071;48.868;9.996;2023-03-03T03:09:54;96644.22;;;1.02;91.08
25080;BME280;13071;48.868;9.996;2023-03-03T03:12:20;96642.09;;;0.99;91.21
25080;BME280;13071;48.868;9.996;2023-03-03T03:14:47;96640.75;;;0.96;91.23
25080;BME280;13071;48.868;9.996;2023-03-03T03:17:13;96639.44;;;0.99;91.38
25080;BME280;13071;48.868;9.996;2023-03-03T03:19:41;96638.63;;;1.03;91.12
25080;BME280;13071;48.868;9.996;2023-03-03T03:22:08;96644.22;;;0.97;91.17
25080;BME280;13071;48.868;9.996;2023-03-03T03:24:34;96642.88;;;0.89;91.74
25080;BME280;13071;48.868;9.996;2023-03-03T03:27:01;96646.66;;;0.83;91.46
25080;BME280;13071;48.868;9.996;2023-03-03T03:29:28;96647.16;;;0.85;91.47
25080;BME280;13071;48.868;9.996;2023-03-03T03:31:54;96647.69;;;0.82;91.81
25080;BME280;13071;48.868;9.996;2023-03-03T03:34:21;96649.81;;;0.80;91.62
25080;BME280;13071;48.868;9.996;2023-03-03T03:36:49;96657.00;;;0.79;91.64
25080;BME280;13071;48.868;9.996;2023-03-03T03:39:15;96662.88;;;0.81;91.89
25080;BME280;13071;48.868;9.996;2023-03-03T03:41:42;96660.22;;;0.76;92.01
25080;BME280;13071;48.868;9.996;2023-03-03T03:44:08;96663.44;;;0.73;91.23
25080;BME280;13071;48.868;9.996;2023-03-03T03:46:35;96663.13;;;0.70;91.30
25080;BME280;13071;48.868;9.996;2023-03-03T03:49:01;96656.25;;;0.64;91.43
25080;BME280;13071;48.868;9.996;2023-03-03T03:51:28;96658.59;;;0.60;91.65
25080;BME280;13071;48.868;9.996;2023-03-03T03:53:56;96662.63;;;0.63;91.77
25080;BME280;13071;48.868;9.996;2023-03-03T03:56:23;96658.88;;;0.54;91.73
25080;BME280;13071;48.868;9.996;2023-03-03T03:58:50;96658.09;;;0.58;91.52
25080;BME280;13071;48.868;9.996;2023-03-03T04:01:16;96660.44;;;0.44;91.30
25080;BME280;13071;48.868;9.996;2023-03-03T04:03:43;96663.13;;;0.39;91.02
25080;BME280;13071;48.868;9.996;2023-03-03T04:06:09;96657.00;;;0.34;90.92
25080;BME280;13071;48.868;9.996;2023-03-03T04:08:36;96661.75;;;0.22;91.32
25080;BME280;13071;48.868;9.996;2023-03-03T04:11:04;96662.31;;;0.24;91.48
25080;BME280;13071;48.868;9.996;2023-03-03T04:13:30;96660.69;;;0.18;91.10
25080;BME280;13071;48.868;9.996;2023-03-03T04:15:59;96654.31;;;0.19;91.64
25080;BME280;13071;48.868;9.996;2023-03-03T04:18:26;96659.34;;;0.20;91.12
25080;BME280;13071;48.868;9.996;2023-03-03T04:20:53;96664.41;;;0.17;90.89
25080;BME280;13071;48.868;9.996;2023-03-03T04:23:19;96660.16;;;0.21;90.68
25080;BME280;13071;48.868;9.996;2023-03-03T04:25:46;96651.59;;;0.04;90.75
25080;BME280;13071;48.868;9.996;2023-03-03T04:28:14;96671.03;;;-0.01;91.01
25080;BME280;13071;48.868;9.996;2023-03-03T04:30:42;96658.53;;;0.05;90.51
25080;BME280;13071;48.868;9.996;2023-03-03T04:33:08;96660.38;;;-0.01;90.20
25080;BME280;13071;48.868;9.996;2023-03-03T04:35:35;96666.72;;;-0.12;90.19
25080;BME280;13071;48.868;9.996;2023-03-03T04:38:02;96665.19;;;0.07;90.30
25080;BME280;13071;48.868;9.996;2023-03-03T04:40:29;96658.56;;;0.10;90.27
25080;BME280;13071;48.868;9.996;2023-03-03T04:42:55;96659.56;;;-0.07;90.35
25080;BME280;13071;48.868;9.996;2023-03-03T04:45:23;96660.06;;;-0.10;91.58
25080;BME280;13071;48.868;9.996;2023-03-03T04:47:50;96671.44;;;-0.24;91.25
25080;BME280;13071;48.868;9.996;2023-03-03T04:50:16;96672.03;;;-0.17;91.50
25080;BME280;13071;48.868;9.996;2023-03-03T04:52:43;96669.09;;;-0.21;90.84
25080;BME280;13071;48.868;9.996;2023-03-03T04:55:09;96669.88;;;-0.20;90.71
25080;BME280;13071;48.868;9.996;2023-03-03T04:57:36;96669.88;;;-0.20;90.83
25080;BME280;13071;48.868;9.996;2023-03-03T05:00:03;96685.84;;;-0.20;91.11
25080;BME280;13071;48.868;9.996;2023-03-03T05:02:32;96683.38;;;-0.37;91.10
25080;BME280;13071;48.868;9.996;2023-03-03T05:04:58;96678.28;;;-0.44;91.01
25080;BME280;13071;48.868;9.996;2023-03-03T05:07:25;96678.59;;;-0.40;90.98
25080;BME280;13071;48.868;9.996;2023-03-03T05:09:51;96692.13;;;-0.41;90.84
25080;BME280;13071;48.868;9.996;2023-03-03T05:12:18;96685.97;;;-0.47;91.33
25080;BME280;13071;48.868;9.996;2023-03-03T05:14:45;96685.41;;;-0.54;91.32
25080;BME280;13071;48.868;9.996;2023-03-03T05:17:12;96686.91;;;-0.68;91.20
25080;BME280;13071;48.868;9.996;2023-03-03T05:19:40;96695.13;;;-0.75;92.16
25080;BME280;13071;48.868;9.996;2023-03-03T05:22:06;96697.53;;;-0.68;92.24
25080;BME280;13071;48.868;9.996;2023-03-03T05:24:33;96697.84;;;-0.65;91.60
25080;BME280;13071;48.868;9.996;2023-03-03T05:26:59;96696.50;;;-0.67;91.69
25080;BME280;13071;48.868;9.996;2023-03-03T05:29:27;96697.25;;;-0.72;91.45
25080;BME280;13071;48.868;9.996;2023-03-03T05:31:55;96696.44;;;-0.77;91.61
25080;BME280;13071;48.868;9.996;2023-03-03T05:34:22;96706.25;;;-0.78;91.86
25080;BME280;13071;48.868;9.996;2023-03-03T05:36:50;96706.28;;;-0.73;91.43
25080;BME280;13071;48.868;9.996;2023-03-03T05:39:17;96713.69;;;-0.80;91.45
25080;BME280;13071;48.868;9.996;2023-03-03T05:41:43;96710.47;;;-0.82;91.61
25080;BME280;13071;48.868;9.996;2023-03-03T05:44:10;96715.28;;;-0.79;92.32
25080;BME280;13071;48.868;9.996;2023-03-03T05:46:37;96707.63;;;-0.75;92.58
25080;BME280;13071;48.868;9.996;2023-03-03T05:49:03;96712.91;;;-0.80;92.63
25080;BME280;13071;48.868;9.996;2023-03-03T05:51:30;96727.59;;;-0.68;92.78
25080;BME280;13071;48.868;9.996;2023-03-03T05:53:58;96718.84;;;-0.63;92.10
25080;BME280;13071;48.868;9.996;2023-03-03T05:56:24;96723.09;;;-0.62;92.01
25080;BME280;13071;48.868;9.996;2023-03-03T05:58:51;96714.34;;;-0.58;92.14
25080;BME280;13071;48.868;9.996;2023-03-03T06:01:18;96714.97;;;-0.46;92.21
25080;BME280;13071;48.868;9.996;2023-03-03T06:03:44;96712.84;;;-0.44;92.31
25080;BME280;13071;48.868;9.996;2023-03-03T06:06:11;96725.34;;;-0.39;91.62
25080;BME280;13071;48.868;9.996;2023-03-03T06:08:38;96728.06;;;-0.34;91.80
25080;BME280;13071;48.868;9.996;2023-03-03T06:11:06;96722.50;;;-0.27;91.54
25080;BME280;13071;48.868;9.996;2023-03-03T06:13:32;96732.06;;;-0.31;91.59
25080;BME280;13071;48.868;9.996;2023-03-03T06:15:59;96734.75;;;-0.26;92.09
25080;BME280;13071;48.868;9.996;2023-03-03T06:18:26;96732.56;;;-0.34;92.15
25080;BME280;13071;48.868;9.996;2023-03-03T06:20:53;96732.59;;;-0.29;92.52
25080;BME280;13071;48.868;9.996;2023-03-03T06:23:20;96748.84;;;-0.26;92.73
25080;BME280;13071;48.868;9.996;2023-03-03T06:25:47;96741.69;;;-0.25;92.74
25080;BME280;13071;48.868;9.996;2023-03-03T06:28:15;96740.06;;;-0.26;92.86
25080;BME280;13071;48.868;9.996;2023-03-03T06:30:41;96737.44;;;-0.21;92.89
25080;BME280;13071;48.868;9.996;2023-03-03T06:33:08;96745.97;;;-0.14;92.97
25080;BME280;13071;48.868;9.996;2023-03-03T06:35:34;96746.31;;;-0.01;92.84
25080;BME280;13071;48.868;9.996;2023-03-03T06:38:01;96747.91;;;0.06;92.18
25080;BME280;13071;48.868;9.996;2023-03-03T06:40:28;96755.91;;;0.06;92.03
25080;BME280;13071;48.868;9.996;2023-03-03T06:42:54;96759.91;;;0.03;92.59
25080;BME280;13071;48.868;9.996;2023-03-03T06:45:22;96757.53;;;0.12;92.27
25080;BME280;13071;48.868;9.996;2023-03-03T06:47:49;96761.00;;;0.12;92.63
25080;BME280;13071;48.868;9.996;2023-03-03T06:50:18;96762.06;;;0.11;92.55
25080;BME280;13071;48.868;9.996;2023-03-03T06:52:45;96766.88;;;0.14;92.96
25080;BME280;13071;48.868;9.996;2023-03-03T06:55:16;96771.13;;;0.20;93.19
25080;BME280;13071;48.868;9.996;2023-03-03T06:57:44;96768.22;;;0.22;93.19
25080;BME280;13071;48.868;9.996;2023-03-03T07:00:15;96768.25;;;0.32;93.44
25080;BME280;13071;48.868;9.996;2023-03-03T07:02:46;96770.69;;;0.38;93.08
25080;BME280;13071;48.868;9.996;2023-03-03T07:05:15;96773.06;;;0.40;92.62
25080;BME280;13071;48.868;9.996;2023-03-03T07:07:42;96777.34;;;0.46;92.84
25080;BME280;13071;48.868;9.996;2023-03-03T07:10:19;96772.31;;;0.55;92.61
25080;BME280;13071;48.868;9.996;2023-03-03T07:12:47;96773.13;;;0.60;92.48
25080;BME280;13071;48.868;9.996;2023-03-03T07:15:16;96775.56;;;0.67;92.57
25080;BME280;13071;48.868;9.996;2023-03-03T07:17:48;96780.91;;;0.82;92.33
25080;BME280;13071;48.868;9.996;2023-03-03T07:20:19;96787.53;;;0.74;92.14
25080;BME280;13071;48.868;9.996;2023-03-03T07:22:46;96788.63;;;0.68;92.74
25080;BME280;13071;48.868;9.996;2023-03-03T07:25:20;96771.88;;;0.83;92.08
25080;BME280;13071;48.868;9.996;2023-03-03T07:27:47;96785.22;;;1.03;91.38
25080;BME280;13071;48.868;9.996;2023-03-03T07:30:23;96781.22;;;1.06;91.01
25080;BME280;13071;48.868;9.996;2023-03-03T07:32:53;96784.69;;;1.11;90.47
25080;BME280;13071;48.868;9.996;2023-03-03T07:35:36;96788.97;;;1.12;90.31
25080;BME280;13071;48.868;9.996;2023-03-03T07:38:15;96788.41;;;1.15;90.61
25080;BME280;13071;48.868;9.996;2023-03-03T07:40:46;96781.75;;;1.18;90.58
25080;BME280;13071;48.868;9.996;2023-03-03T07:43:33;96793.75;;;1.30;90.03
25080;BME280;13071;48.868;9.996;2023-03-03T07:46:04;96792.69;;;1.47;89.40
25080;BME280;13071;48.868;9.996;2023-03-03T07:48:43;96799.63;;;1.53;89.20
25080;BME280;13071;48.868;9.996;2023-03-03T07:51:12;96804.16;;;1.52;89.06
25080;BME280;13071;48.868;9.996;2023-03-03T07:53:41;96799.09;;;1.41;89.31
25080;BME280;13071;48.868;9.996;2023-03-03T07:56:16;96804.16;;;1.27;89.24
25080;BME280;13071;48.868;9.996;2023-03-03T07:58:43;96803.63;;;1.25;89.61
25080;BME280;13071;48.868;9.996;2023-03-03T08:01:34;96804.97;;;1.38;90.59
25080;BME280;13071;48.868;9.996;2023-03-03T08:04:14;96798.84;;;1.32;90.38
25080;BME280;13071;48.868;9.996;2023-03-03T08:06:44;96801.75;;;1.41;91.39
25080;BME280;13071;48.868;9.996;2023-03-03T08:09:29;96804.44;;;1.51;90.30
25080;BME280;13071;48.868;9.996;2023-03-03T08:11:58;96802.78;;;1.80;89.35
25080;BME280;13071;48.868;9.996;2023-03-03T08:14:29;96802.78;;;1.90;88.53
25080;BME280;13071;48.868;9.996;2023-03-03T08:16:56;96801.97;;;1.95;87.98
25080;BME280;13071;48.868;9.996;2023-03-03T08:19:25;96800.06;;;2.10;88.06
25080;BME280;13071;48.868;9.996;2023-03-03T08:21:58;96812.06;;;2.08;88.40
25080;BME280;13071;48.868;9.996;2023-03-03T08:24:26;96802.94;;;2.24;87.92
25080;BME280;13071;48.868;9.996;2023-03-03T08:26:53;96815.09;;;1.61;90.51
25080;BME280;13071;48.868;9.996;2023-03-03T08:29:19;96815.63;;;1.33;91.69
25080;BME280;13071;48.868;9.996;2023-03-03T08:31:46;96824.41;;;1.73;91.45
25080;BME280;13071;48.868;9.996;2023-03-03T08:34:12;96823.28;;;2.10;90.39
25080;BME280;13071;48.868;9.996;2023-03-03T08:36:40;96822.19;;;2.26;87.69
25080;BME280;13071;48.868;9.996;2023-03-03T08:39:07;96826.97;;;2.24;87.07
25080;BME280;13071;48.868;9.996;2023-03-03T08:41:34;96822.16;;;2.31;87.05
25080;BME280;13071;48.868;9.996;2023-03-03T08:44:01;96824.00;;;2.36;87.62
25080;BME280;13071;48.868;9.996;2023-03-03T08:46:27;96821.38;;;2.31;88.75
25080;BME280;13071;48.868;9.996;2023-03-03T08:48:54;96823.38;;;2.64;86.14
25080;BME280;13071;48.868;9.996;2023-03-03T08:51:20;96823.91;;;2.66;86.52
25080;BME280;13071;48.868;9.996;2023-03-03T08:53:48;96819.56;;;2.80;85.24
25080;BME280;13071;48.868;9.996;2023-03-03T08:56:15;96832.00;;;3.00;85.23
25080;BME280;13071;48.868;9.996;2023-03-03T08:58:42;96828.19;;;3.11;84.80
25080;BME280;13071;48.868;9.996;2023-03-03T09:01:13;96827.19;;;2.97;84.94
25080;BME280;13071;48.868;9.996;2023-03-03T09:03:40;96836.44;;;3.20;84.39
25080;BME280;13071;48.868;9.996;2023-03-03T09:06:07;96829.31;;;3.44;83.63
25080;BME280;13071;48.868;9.996;2023-03-03T09:08:33;96822.53;;;3.52;83.70
25080;BME280;13071;48.868;9.996;2023-03-03T09:11:02;96836.16;;;3.16;84.49
25080;BME280;13071;48.868;9.996;2023-03-03T09:13:29;96833.81;;;3.48;84.47
25080;BME280;13071;48.868;9.996;2023-03-03T09:15:57;96843.47;;;3.44;82.52
25080;BME280;13071;48.868;9.996;2023-03-03T09:18:30;96843.00;;;3.71;81.63
25080;BME280;13071;48.868;9.996;2023-03-03T09:20:57;96847.63;;;3.95;80.77
25080;BME280;13071;48.868;9.996;2023-03-03T09:23:32;96847.72;;;3.84;80.55
25080;BME280;13071;48.868;9.996;2023-03-03T09:26:18;96845.44;;;3.97;80.29
25080;BME280;13071;48.868;9.996;2023-03-03T09:28:47;96848.47;;;4.19;78.12
25080;BME280;13071;48.868;9.996;2023-03-03T09:31:22;96846.59;;;4.43;77.75
25080;BME280;13071;48.868;9.996;2023-03-03T09:33:50;96849.78;;;4.45;75.72
25080;BME280;13071;48.868;9.996;2023-03-03T09:36:22;96851.09;;;4.48;75.76
25080;BME280;13071;48.868;9.996;2023-03-03T09:38:49;96843.41;;;4.41;75.34
25080;BME280;13071;48.868;9.996;2023-03-03T09:41:38;96851.47;;;4.12;76.17
25080;BME280;13071;48.868;9.996;2023-03-03T09:44:24;96860.28;;;4.42;75.94
25080;BME280;13071;48.868;9.996;2023-03-03T09:47:10;96851.59;;;4.50;75.12
25080;BME280;13071;48.868;9.996;2023-03-03T09:49:47;96853.56;;;4.68;73.69
25080;BME280;13071;48.868;9.996;2023-03-03T09:52:25;96855.50;;;4.62;73.67
25080;BME280;13071;48.868;9.996;2023-03-03T09:55:07;96852.66;;;4.54;73.78
25080;BME280;13071;48.868;9.996;2023-03-03T09:57:50;96857.94;;;4.83;73.38
25080;BME280;13071;48.868;9.996;2023-03-03T10:00:34;96856.59;;;4.80;74.84
25080;BME280;13071;48.868;9.996;2023-03-03T10:03:31;96859.81;;;4.82;72.21
25080;BME280;13071;48.868;9.996;2023-03-03T10:06:03;96850.19;;;4.33;72.39
25080;BME280;13071;48.868;9.996;2023-03-03T10:08:44;96856.78;;;4.41;72.98
25080;BME280;13071;48.868;9.996;2023-03-03T10:11:18;96854.50;;;4.77;71.09
25080;BME280;13071;48.868;9.996;2023-03-03T10:17:13;96856.75;;;5.12;69.36
25080;BME280;13071;48.868;9.996;2023-03-03T10:19:50;96858.81;;;4.97;70.58
25080;BME280;13071;48.868;9.996;2023-03-03T10:22:27;96855.03;;;4.03;68.69
25080;BME280;13071;48.868;9.996;2023-03-03T10:25:02;96857.16;;;4.29;69.47
25080;BME280;13071;48.868;9.996;2023-03-03T10:27:40;96863.69;;;4.71;68.92
25080;BME280;13071;48.868;9.996;2023-03-03T10:30:16;96851.31;;;4.75;68.64
25080;BME280;13071;48.868;9.996;2023-03-03T10:32:55;96844.47;;;5.06;66.29
25080;BME280;13071;48.868;9.996;2023-03-03T10:35:42;96846.00;;;5.12;67.27
25080;BME280;13071;48.868;9.996;2023-03-03T10:38:24;96853.97;;;5.55;66.80
25080;BME280;13071;48.868;9.996;2023-03-03T10:41:00;96843.81;;;5.14;67.33
25080;BME280;13071;48.868;9.996;2023-03-03T10:43:42;96845.47;;;5.67;66.67
25080;BME280;13071;48.868;9.996;2023-03-03T10:46:19;96841.44;;;5.83;65.25
25080;BME280;13071;48.868;9.996;2023-03-03T10:52:25;96852.03;;;5.93;66.96
25080;BME280;13071;48.868;9.996;2023-03-03T10:55:26;96850.19;;;6.07;67.04
25080;BME280;13071;48.868;9.996;2023-03-03T10:58:06;96849.50;;;6.15;66.74
25080;BME280;13071;48.868;9.996;2023-03-03T11:00:41;96860.34;;;6.10;65.68
25080;BME280;13071;48.868;9.996;2023-03-03T11:03:28;96860.25;;;6.01;64.90
25080;BME280;13071;48.868;9.996;2023-03-03T11:06:04;96852.13;;;6.34;65.61
25080;BME280;13071;48.868;9.996;2023-03-03T11:08:35;96862.69;;;6.30;64.86
25080;BME280;13071;48.868;9.996;2023-03-03T11:11:09;96866.63;;;6.19;64.70
25080;BME280;13071;48.868;9.996;2023-03-03T11:13:45;96863.50;;;5.98;66.13
25080;BME280;13071;48.868;9.996;2023-03-03T11:16:24;96867.53;;;6.15;64.91
25080;BME280;13071;48.868;9.996;2023-03-03T11:19:07;96865.00;;;6.50;65.17
25080;BME280;13071;48.868;9.996;2023-03-03T11:21:41;96858.03;;;6.49;64.24
25080;BME280;13071;48.868;9.996;2023-03-03T11:24:29;96849.88;;;6.55;64.44
25080;BME280;13071;48.868;9.996;2023-03-03T11:27:07;96852.94;;;6.62;64.54
25080;BME280;13071;48.868;9.996;2023-03-03T11:30:02;96854.81;;;6.47;64.44
25080;BME280;13071;48.868;9.996;2023-03-03T11:32:37;96851.47;;;6.56;64.31
25080;BME280;13071;48.868;9.996;2023-03-03T11:35:18;96851.34;;;6.74;64.66
25080;BME280;13071;48.868;9.996;2023-03-03T11:37:56;96850.16;;;6.80;65.77
25080;BME280;13071;48.868;9.996;2023-03-03T11:40:30;96837.78;;;6.93;65.03
25080;BME280;13071;48.868;9.996;2023-03-03T11:43:03;96837.50;;;6.94;64.45
25080;BME280;13071;48.868;9.996;2023-03-03T11:45:37;96838.78;;;6.97;64.66
25080;BME280;13071;48.868;9.996;2023-03-03T11:48:13;96840.44;;;7.07;64.19
25080;BME280;13071;48.868;9.996;2023-03-03T11:50:45;96838.03;;;7.19;63.19
25080;BME280;13071;48.868;9.996;2023-03-03T11:53:28;96833.56;;;7.14;63.66
25080;BME280;13071;48.868;9.996;2023-03-03T11:56:04;96828.38;;;7.18;62.47
25080;BME280;13071;48.868;9.996;2023-03-03T11:58:41;96825.41;;;7.06;62.87
25080;BME280;13071;48.868;9.996;2023-03-03T12:01:16;96819.81;;;7.02;62.18
25080;BME280;13071;48.868;9.996;2023-03-03T12:03:48;96823.03;;;7.04;62.17
25080;BME280;13071;48.868;9.996;2023-03-03T12:06:24;96816.25;;;6.93;63.16
25080;BME280;13071;48.868;9.996;2023-03-03T12:09:11;96818.56;;;7.00;62.60
25080;BME280;13071;48.868;9.996;2023-03-03T12:11:46;96816.19;;;7.20;65.00
25080;BME280;13071;48.868;9.996;2023-03-03T12:14:24;96822.16;;;7.31;65.23
25080;BME280;13071;48.868;9.996;2023-03-03T12:16:58;96813.88;;;7.27;62.41
25080;BME280;13071;48.868;9.996;2023-03-03T12:19:44;96815.19;;;7.30;63.20
25080;BME280;13071;48.868;9.996;2023-03-03T12:22:23;96812.91;;;7.23;62.42
25080;BME280;13071;48.868;9.996;2023-03-03T12:25:08;96809.81;;;7.30;61.23
25080;BME280;13071;48.868;9.996;2023-03-03T12:27:47;96812.03;;;7.14;62.05
25080;BME280;13071;48.868;9.996;2023-03-03T12:30:24;96812.13;;;7.45;63.27
25080;BME280;13071;48.868;9.996;2023-03-03T12:33:05;96813.09;;;6.77;65.37
25080;BME280;13071;48.868;9.996;2023-03-03T12:35:42;96810.38;;;6.91;67.01
25080;BME280;13071;48.868;9.996;2023-03-03T12:38:19;96807.25;;;7.11;63.17
25080;BME280;13071;48.868;9.996;2023-03-03T12:40:54;96807.63;;;7.18;62.58
25080;BME280;13071;48.868;9.996;2023-03-03T12:43:45;96804.59;;;7.33;62.08
25080;BME280;13071;48.868;9.996;2023-03-03T12:46:20;96804.53;;;7.25;61.55
25080;BME280;13071;48.868;9.996;2023-03-03T12:48:48;96800.38;;;7.19;62.09
25080;BME280;13071;48.868;9.996;2023-03-03T12:51:27;96801.91;;;7.33;61.12
25080;BME280;13071;48.868;9.996;2023-03-03T12:54:15;96798.13;;;7.34;60.49
25080;BME280;13071;48.868;9.996;2023-03-03T12:56:52;96794.53;;;7.39;60.66
25080;BME280;13071;48.868;9.996;2023-03-03T12:59:24;96790.22;;;7.38;61.40
25080;BME280;13071;48.868;9.996;2023-03-03T13:02:06;96783.31;;;7.68;60.74
25080;BME280;13071;48.868;9.996;2023-03-03T13:04:46;96785.63;;;7.61;61.20
25080;BME280;13071;48.868;9.996;2023-03-03T13:07:19;96790.91;;;7.88;61.43
25080;BME280;13071;48.868;9.996;2023-03-03T13:10:02;96785.31;;;7.85;60.53
25080;BME280;13071;48.868;9.996;2023-03-03T13:12:38;96793.16;;;7.72;60.19
25080;BME280;13071;48.868;9.996;2023-03-03T13:15:12;96792.19;;;7.68;60.05
25080;BME280;13071;48.868;9.996;2023-03-03T13:17:46;96792.63;;;7.62;59.84
25080;BME280;13071;48.868;9.996;2023-03-03T13:20:20;96786.44;;;7.84;60.25
25080;BME280;13071;48.868;9.996;2023-03-03T13:22:51;96789.28;;;7.87;60.11
25080;BME280;13071;48.868;9.996;2023-03-03T13:25:33;96788.38;;;7.92;60.23
25080;BME280;13071;48.868;9.996;2023-03-03T13:28:07;96780.31;;;7.69;59.89
25080;BME280;13071;48.868;9.996;2023-03-03T13:30:41;96782.25;;;7.77;60.08
25080;BME280;13071;48.868;9.996;2023-03-03T13:33:16;96777.44;;;7.44;61.38
25080;BME280;13071;48.868;9.996;2023-03-03T13:35:49;96770.50;;;7.51;62.13
25080;BME280;13071;48.868;9.996;2023-03-03T13:38:20;96774.00;;;7.74;60.27